createdAt,value
2023-01-10T00:02:07.271Z,1.63
2023-01-10T00:04:34.972Z,0.47
2023-01-10T00:07:03.287Z,1.00
2023-01-10T00:09:31.174Z,0.93
2023-01-10T00:12:17.784Z,1.90
2023-01-10T00:14:45.413Z,0.80
2023-01-10T00:17:13.195Z,0.85
2023-01-10T00:19:41.240Z,0.73
2023-01-10T00:22:09.326Z,1.50
2023-01-10T00:24:37.088Z,0.90
2023-01-10T00:27:05.308Z,1.60
2023-01-10T00:29:34.022Z,2.10
2023-01-10T00:32:01.693Z,2.67
2023-01-10T00:34:30.046Z,1.10
2023-01-10T00:36:57.848Z,0.70
2023-01-10T00:39:27.514Z,1.50
2023-01-10T00:42:20.631Z,0.50
2023-01-10T00:44:48.986Z,0.75
2023-01-10T00:47:16.757Z,0.50
2023-01-10T00:49:44.452Z,0.75
2023-01-10T00:52:12.253Z,0.60
2023-01-10T00:54:40.312Z,0.63
2023-01-10T00:57:08.430Z,0.65
2023-01-10T00:59:36.096Z,0.50
2023-01-10T01:02:04.048Z,0.55
2023-01-10T01:04:34.329Z,0.63
2023-01-10T01:07:02.828Z,0.63
2023-01-10T01:09:30.894Z,0.60
2023-01-10T01:11:58.674Z,0.40
2023-01-10T01:14:26.530Z,0.40
2023-01-10T01:16:55.385Z,0.40
2023-01-10T01:19:22.989Z,0.40
2023-01-10T01:21:50.901Z,0.50
2023-01-10T01:24:18.643Z,1.05
2023-01-10T01:26:46.395Z,0.73
2023-01-10T01:29:14.023Z,0.93
2023-01-10T01:31:41.611Z,1.27
2023-01-10T01:34:09.792Z,0.40
2023-01-10T01:36:37.500Z,0.65
2023-01-10T01:39:06.216Z,0.30
2023-01-10T01:41:52.818Z,0.38
2023-01-10T01:44:20.611Z,0.25
2023-01-10T01:47:06.938Z,0.70
2023-01-10T01:49:39.962Z,0.35
2023-01-10T01:52:18.758Z,0.40
2023-01-10T01:54:46.826Z,0.52
2023-01-10T01:57:20.121Z,0.40
2023-01-10T01:59:53.109Z,0.38
2023-01-10T02:02:33.119Z,1.08
2023-01-10T02:05:08.465Z,0.28
2023-01-10T02:07:40.332Z,0.70
2023-01-10T02:10:41.738Z,0.70
2023-01-10T02:13:14.216Z,0.25
2023-01-10T02:15:41.943Z,0.57
2023-01-10T02:18:10.075Z,0.90
2023-01-10T02:20:58.336Z,0.32
2023-01-10T02:24:10.292Z,0.47
2023-01-10T02:30:11.676Z,0.75
2023-01-10T02:32:56.751Z,1.08
2023-01-10T02:35:41.143Z,0.30
2023-01-10T02:38:42.714Z,0.52
2023-01-10T02:41:23.873Z,0.40
2023-01-10T02:44:22.512Z,0.95
2023-01-10T02:46:50.815Z,0.40
2023-01-10T02:49:19.459Z,1.33
2023-01-10T02:51:47.117Z,0.65
2023-01-10T02:54:30.713Z,2.08
2023-01-10T02:57:34.334Z,1.08
2023-01-10T03:00:18.728Z,0.47
2023-01-10T03:03:25.853Z,1.92
2023-01-10T03:06:29.473Z,0.47
2023-01-10T03:09:21.950Z,0.70
2023-01-10T03:11:53.625Z,1.15
2023-01-10T03:17:00.465Z,2.10
2023-01-10T03:19:35.297Z,2.38
2023-01-10T03:22:05.128Z,1.27
2023-01-10T03:24:47.969Z,1.38
2023-01-10T03:28:02.091Z,2.53
2023-01-10T03:30:58.532Z,1.48
2023-01-10T03:33:30.946Z,1.95
2023-01-10T03:36:07.339Z,1.13
2023-01-10T03:38:57.036Z,0.50
2023-01-10T03:41:46.998Z,0.50
2023-01-10T03:44:44.144Z,0.82
2023-01-10T03:47:29.919Z,1.05
2023-01-10T03:50:08.506Z,0.55
2023-01-10T03:52:37.413Z,0.40
2023-01-10T03:55:07.262Z,1.67
2023-01-10T03:57:34.889Z,1.27
2023-01-10T04:00:03.519Z,0.68
2023-01-10T04:02:32.461Z,1.55
2023-01-10T04:05:00.237Z,2.13
2023-01-10T04:07:27.970Z,0.77
2023-01-10T04:09:56.257Z,2.08
2023-01-10T04:12:24.200Z,0.85
2023-01-10T04:14:51.904Z,0.98
2023-01-10T04:17:19.614Z,2.67
2023-01-10T04:19:50.288Z,2.03
2023-01-10T04:22:18.271Z,2.57
2023-01-10T04:24:47.163Z,4.28
2023-01-10T04:27:14.760Z,3.05
2023-01-10T04:29:42.782Z,2.90
2023-01-10T04:32:10.432Z,2.60
2023-01-10T04:34:38.144Z,5.57
2023-01-10T04:37:05.877Z,2.47
2023-01-10T04:39:33.690Z,3.65
2023-01-10T04:42:01.304Z,3.00
2023-01-10T04:44:29.092Z,2.40
2023-01-10T04:46:57.133Z,2.90
2023-01-10T04:49:24.773Z,6.38
2023-01-10T04:51:52.409Z,5.28
2023-01-10T04:54:21.942Z,3.45
2023-01-10T04:56:50.817Z,7.95
2023-01-10T04:59:18.617Z,4.10
2023-01-10T05:01:46.378Z,5.18
2023-01-10T05:04:14.729Z,5.07
2023-01-10T05:06:42.479Z,6.35
2023-01-10T05:09:10.246Z,4.18
2023-01-10T05:11:37.977Z,5.70
2023-01-10T05:14:05.808Z,4.70
2023-01-10T05:16:33.619Z,6.35
2023-01-10T05:19:02.066Z,5.53
2023-01-10T05:21:30.654Z,6.95
2023-01-10T05:23:58.709Z,7.65
2023-01-10T05:26:26.476Z,6.57
2023-01-10T05:28:54.245Z,5.10
2023-01-10T05:31:21.964Z,5.18
2023-01-10T05:33:51.743Z,6.78
2023-01-10T05:36:19.912Z,7.68
2023-01-10T05:38:47.743Z,8.52
2023-01-10T05:41:15.405Z,4.50
2023-01-10T05:43:43.049Z,8.07
2023-01-10T05:46:11.167Z,8.43
2023-01-10T05:48:38.968Z,7.68
2023-01-10T05:51:07.204Z,4.72
2023-01-10T05:53:35.000Z,6.30
2023-01-10T05:56:04.667Z,13.68
2023-01-10T05:58:32.347Z,5.68
2023-01-10T06:01:00.023Z,7.43
2023-01-10T06:03:27.966Z,8.10
2023-01-10T06:05:56.467Z,10.60
2023-01-10T06:08:25.034Z,9.82
2023-01-10T06:10:52.842Z,7.32
2023-01-10T06:13:20.728Z,11.63
2023-01-10T06:15:49.238Z,7.05
2023-01-10T06:18:16.895Z,6.38
2023-01-10T06:20:44.814Z,8.60
2023-01-10T06:23:12.838Z,7.95
2023-01-10T06:25:41.778Z,7.45
2023-01-10T06:28:12.243Z,5.97
2023-01-10T06:30:43.234Z,7.07
2023-01-10T06:33:12.099Z,7.10
2023-01-10T06:35:59.808Z,7.32
2023-01-10T06:38:27.429Z,7.97
2023-01-10T06:40:55.174Z,6.47
2023-01-10T06:43:25.993Z,10.18
2023-01-10T06:45:53.859Z,9.18
2023-01-10T06:48:21.891Z,8.02
2023-01-10T06:50:50.432Z,9.27
2023-01-10T06:53:18.220Z,9.25
2023-01-10T06:55:45.965Z,7.68
2023-01-10T06:58:18.306Z,7.15
2023-01-10T07:00:46.148Z,6.90
2023-01-10T07:03:13.777Z,8.07
2023-01-10T07:05:41.717Z,9.30
2023-01-10T07:08:09.665Z,6.00
2023-01-10T07:10:39.803Z,9.25
2023-01-10T07:13:08.004Z,10.20
2023-01-10T07:15:36.143Z,7.78
2023-01-10T07:18:03.935Z,5.60
2023-01-10T07:20:31.606Z,7.85
2023-01-10T07:23:00.548Z,8.85
2023-01-10T07:25:30.472Z,7.22
2023-01-10T07:27:58.756Z,8.80
2023-01-10T07:30:26.570Z,5.97
2023-01-10T07:32:56.410Z,6.97
2023-01-10T07:35:25.097Z,10.20
2023-01-10T07:37:52.871Z,9.55
2023-01-10T07:40:20.615Z,11.50
2023-01-10T07:42:48.383Z,10.45
2023-01-10T07:45:16.242Z,6.90
2023-01-10T07:47:43.928Z,7.03
2023-01-10T07:50:11.779Z,10.00
2023-01-10T07:52:39.462Z,11.75
2023-01-10T07:55:07.650Z,6.63
2023-01-10T07:57:35.307Z,6.15
2023-01-10T08:00:03.645Z,6.75
2023-01-10T08:02:32.760Z,8.50
2023-01-10T08:05:00.524Z,8.07
2023-01-10T08:07:32.612Z,8.63
2023-01-10T08:10:00.259Z,13.75
2023-01-10T08:12:27.982Z,6.95
2023-01-10T08:14:55.835Z,9.23
2023-01-10T08:17:23.488Z,9.55
2023-01-10T08:19:51.629Z,7.60
2023-01-10T08:22:19.337Z,9.82
2023-01-10T08:24:46.990Z,9.50
2023-01-10T08:27:14.725Z,9.00
2023-01-10T08:29:42.473Z,10.07
2023-01-10T08:32:10.747Z,6.47
2023-01-10T08:34:38.401Z,6.65
2023-01-10T08:37:06.115Z,9.30
2023-01-10T08:39:35.286Z,7.63
2023-01-10T08:42:03.141Z,9.40
2023-01-10T08:44:30.827Z,9.88
2023-01-10T08:46:58.723Z,9.07
2023-01-10T08:49:26.773Z,12.32
2023-01-10T08:51:54.631Z,9.27
2023-01-10T08:54:22.362Z,8.40
2023-01-10T08:56:50.268Z,10.13
2023-01-10T08:59:18.161Z,7.90
2023-01-10T09:01:45.862Z,11.93
2023-01-10T09:04:13.777Z,8.43
2023-01-10T09:06:41.542Z,7.28
2023-01-10T09:09:09.843Z,9.70
2023-01-10T09:11:37.632Z,9.15
2023-01-10T09:14:07.309Z,7.70
2023-01-10T09:16:35.104Z,7.80
2023-01-10T09:19:04.347Z,8.77
2023-01-10T09:21:32.147Z,8.02
2023-01-10T09:23:59.791Z,5.97
2023-01-10T09:26:27.482Z,8.18
2023-01-10T09:28:55.102Z,7.95
2023-01-10T09:31:22.811Z,10.35
2023-01-10T09:33:50.510Z,7.68
2023-01-10T09:36:18.170Z,8.38
2023-01-10T09:38:45.925Z,9.30
2023-01-10T09:41:58.356Z,6.97
2023-01-10T09:45:15.155Z,8.98
2023-01-10T09:48:04.784Z,7.90
2023-01-10T09:50:51.439Z,11.63
2023-01-10T09:53:25.742Z,11.70
2023-01-10T09:55:59.895Z,9.98
2023-01-10T09:58:31.864Z,9.73
2023-01-10T10:01:08.105Z,6.80
2023-01-10T10:04:02.226Z,10.30
2023-01-10T10:06:30.075Z,6.45
2023-01-10T10:08:57.818Z,7.93
2023-01-10T10:11:25.491Z,9.48
2023-01-10T10:14:30.107Z,6.55
2023-01-10T10:17:18.386Z,8.80
2023-01-10T10:20:19.866Z,8.15
2023-01-10T10:23:34.126Z,11.55
2023-01-10T10:26:07.086Z,7.38
2023-01-10T10:28:54.893Z,10.18
2023-01-10T10:31:41.123Z,7.32
2023-01-10T10:34:37.493Z,8.13
2023-01-10T10:37:33.305Z,8.68
2023-01-10T10:40:04.526Z,7.53
2023-01-10T10:42:38.172Z,10.63
2023-01-10T10:45:25.707Z,8.65
2023-01-10T10:48:05.665Z,7.85
2023-01-10T10:50:53.806Z,10.02
2023-01-10T10:53:21.748Z,9.60
2023-01-10T10:55:50.834Z,12.30
2023-01-10T10:58:18.701Z,7.97
2023-01-10T11:00:47.402Z,9.27
2023-01-10T11:03:53.797Z,8.15
2023-01-10T11:06:23.679Z,6.55
2023-01-10T11:08:56.356Z,8.77
2023-01-10T11:11:29.760Z,5.82
2023-01-10T11:14:06.524Z,6.90
2023-01-10T11:16:41.612Z,6.85
2023-01-10T11:19:27.124Z,9.07
2023-01-10T11:22:02.323Z,11.63
2023-01-10T11:24:51.001Z,6.40
2023-01-10T11:27:24.022Z,7.38
2023-01-10T11:30:04.020Z,11.95
2023-01-10T11:32:57.038Z,8.05
2023-01-10T11:35:51.823Z,7.57
2023-01-10T11:38:29.851Z,8.40
2023-01-10T11:41:14.376Z,9.50
2023-01-10T11:43:42.323Z,7.75
2023-01-10T11:46:25.687Z,5.90
2023-01-10T11:49:12.735Z,8.32
2023-01-10T11:51:55.665Z,9.20
2023-01-10T11:54:28.831Z,8.82
2023-01-10T11:57:16.491Z,6.50
2023-01-10T12:00:10.691Z,7.00
2023-01-10T12:02:46.187Z,8.88
2023-01-10T12:05:22.600Z,7.22
2023-01-10T12:08:10.421Z,10.30
2023-01-10T12:10:38.204Z,6.70
2023-01-10T12:13:17.090Z,8.05
2023-01-10T12:15:46.884Z,4.93
2023-01-10T12:18:17.251Z,6.45
2023-01-10T12:20:51.743Z,6.35
2023-01-10T12:23:25.207Z,10.00
2023-01-10T12:26:07.067Z,5.68
2023-01-10T12:28:46.696Z,8.95
2023-01-10T12:31:16.021Z,5.55
2023-01-10T12:33:50.705Z,6.75
2023-01-10T12:37:07.955Z,6.72
2023-01-10T12:40:31.569Z,7.38
2023-01-10T12:43:33.672Z,6.13
2023-01-10T12:46:29.679Z,6.10
2023-01-10T12:49:18.221Z,7.45
2023-01-10T12:51:51.857Z,3.80
2023-01-10T12:54:23.822Z,6.47
2023-01-10T12:56:53.425Z,6.95
2023-01-10T12:59:44.218Z,5.57
2023-01-10T13:02:28.530Z,5.55
2023-01-10T13:05:03.011Z,3.55
2023-01-10T13:07:35.141Z,6.60
2023-01-10T13:10:05.018Z,9.85
2023-01-10T13:12:42.124Z,5.65
2023-01-10T13:15:38.831Z,8.75
2023-01-10T13:18:28.934Z,6.38
2023-01-10T13:21:13.373Z,6.00
2023-01-10T13:24:26.377Z,7.47
2023-01-10T13:26:59.117Z,5.82
2023-01-10T13:29:39.051Z,5.47
2023-01-10T13:32:36.057Z,3.33
2023-01-10T13:35:11.287Z,5.22
2023-01-10T13:37:44.252Z,7.97
2023-01-10T13:40:25.833Z,5.80
2023-01-10T13:43:36.657Z,3.55
2023-01-10T13:46:16.645Z,4.75
2023-01-10T13:49:10.068Z,4.75
2023-01-10T13:52:15.011Z,2.40
2023-01-10T13:55:03.484Z,5.15
2023-01-10T13:57:54.898Z,4.45
2023-01-10T14:01:10.630Z,6.00
2023-01-10T14:03:53.694Z,2.90
2023-01-10T14:06:30.699Z,4.53
2023-01-10T14:09:25.924Z,2.50
2023-01-10T14:11:59.539Z,4.53
2023-01-10T14:14:41.371Z,3.90
2023-01-10T14:17:34.709Z,4.88
2023-01-10T14:20:18.298Z,4.15
2023-01-10T14:23:17.062Z,3.60
2023-01-10T14:25:46.288Z,3.47
2023-01-10T14:28:28.493Z,3.45
2023-01-10T14:31:21.127Z,3.47
2023-01-10T14:33:50.158Z,2.65
2023-01-10T14:36:25.480Z,4.75
2023-01-10T14:38:59.160Z,3.33
2023-01-10T14:41:41.227Z,5.20
2023-01-10T14:44:48.725Z,5.28
2023-01-10T14:47:35.389Z,6.10
2023-01-10T14:50:03.971Z,4.18
2023-01-10T14:52:32.204Z,5.72
2023-01-10T14:55:21.415Z,2.78
2023-01-10T14:58:01.706Z,6.88
2023-01-10T15:00:42.349Z,6.00
2023-01-10T15:03:23.072Z,4.57
2023-01-10T15:05:56.961Z,7.15
2023-01-10T15:08:30.662Z,6.57
2023-01-10T15:11:04.306Z,6.15
2023-01-10T15:13:37.509Z,6.35
2023-01-10T15:16:07.796Z,12.88
2023-01-10T15:18:44.451Z,16.08
2023-01-10T15:21:16.172Z,10.38
2023-01-10T15:23:46.540Z,5.63
2023-01-10T15:26:21.372Z,7.30
2023-01-10T15:29:12.281Z,3.88
2023-01-10T15:31:41.426Z,5.93
2023-01-10T15:34:16.627Z,5.43
2023-01-10T15:36:54.845Z,5.95
2023-01-10T15:39:39.834Z,5.93
2023-01-10T15:42:12.122Z,3.72
2023-01-10T15:44:52.498Z,3.13
2023-01-10T15:47:49.308Z,3.80
2023-01-10T15:50:28.475Z,4.68
2023-01-10T15:53:11.376Z,2.58
2023-01-10T15:55:40.643Z,2.63
2023-01-10T15:58:30.942Z,2.97
2023-01-10T16:00:59.949Z,4.50
2023-01-10T16:03:37.602Z,6.07
2023-01-10T16:06:12.446Z,3.63
2023-01-10T16:08:40.371Z,3.47
2023-01-10T16:11:59.480Z,4.15
2023-01-10T16:14:27.319Z,4.28
2023-01-10T16:16:55.015Z,4.18
2023-01-10T16:19:22.991Z,5.45
2023-01-10T16:21:57.778Z,12.82
2023-01-10T16:24:34.947Z,5.47
2023-01-10T16:27:05.923Z,6.50
2023-01-10T16:29:34.859Z,5.13
2023-01-10T16:32:02.531Z,6.65
2023-01-10T16:34:33.879Z,7.43
2023-01-10T16:37:01.499Z,6.05
2023-01-10T16:39:29.280Z,6.63
2023-01-10T16:42:15.748Z,9.40
2023-01-10T16:44:44.223Z,12.35
2023-01-10T16:47:11.861Z,8.95
2023-01-10T16:49:41.587Z,8.90
2023-01-10T16:52:14.128Z,9.40
2023-01-10T16:54:41.906Z,7.72
2023-01-10T16:57:12.114Z,8.77
2023-01-10T16:59:39.947Z,6.32
2023-01-10T17:02:17.844Z,5.38
2023-01-10T17:04:45.605Z,6.43
2023-01-10T17:07:13.276Z,7.15
2023-01-10T17:09:40.919Z,8.40
2023-01-10T17:12:17.993Z,4.35
2023-01-10T17:14:48.037Z,6.20
2023-01-10T17:17:15.793Z,10.07
2023-01-10T17:19:44.588Z,8.75
2023-01-10T17:22:12.373Z,5.85
2023-01-10T17:24:40.090Z,5.45
2023-01-10T17:27:08.009Z,6.20
2023-01-10T17:29:35.792Z,9.10
2023-01-10T17:32:03.618Z,5.25
2023-01-10T17:34:37.115Z,5.13
2023-01-10T17:37:05.901Z,5.90
2023-01-10T17:39:34.554Z,5.75
2023-01-10T17:42:02.648Z,5.22
2023-01-10T17:44:30.435Z,4.85
2023-01-10T17:46:58.245Z,6.97
2023-01-10T17:49:25.945Z,9.65
2023-01-10T17:51:54.699Z,3.65
2023-01-10T17:54:22.375Z,6.90
2023-01-10T17:56:50.207Z,5.03
2023-01-10T17:59:18.108Z,4.03
2023-01-10T18:01:46.075Z,4.78
2023-01-10T18:04:13.886Z,6.25
2023-01-10T18:06:41.601Z,3.67
2023-01-10T18:09:09.692Z,6.32
2023-01-10T18:11:37.573Z,5.68
2023-01-10T18:14:24.115Z,6.35
2023-01-10T18:16:51.956Z,5.68
2023-01-10T18:19:19.691Z,5.30
2023-01-10T18:21:48.623Z,5.43
2023-01-10T18:24:19.198Z,5.15
2023-01-10T18:26:47.793Z,4.57
2023-01-10T18:29:15.807Z,5.35
2023-01-10T18:31:43.710Z,2.85
2023-01-10T18:34:11.566Z,3.20
2023-01-10T18:36:59.232Z,4.47
2023-01-10T18:39:27.027Z,6.45
2023-01-10T18:41:54.858Z,5.10
2023-01-10T18:44:23.063Z,7.35
2023-01-10T18:46:52.657Z,5.82
2023-01-10T18:49:20.414Z,6.05
2023-01-10T18:51:48.264Z,6.07
2023-01-10T18:54:16.152Z,6.72
2023-01-10T18:56:44.034Z,6.82
2023-01-10T18:59:11.770Z,8.45
2023-01-10T19:01:39.647Z,4.63
2023-01-10T19:04:08.263Z,5.40
2023-01-10T19:06:36.052Z,3.53
2023-01-10T19:09:04.090Z,7.55
2023-01-10T19:11:31.942Z,6.40
2023-01-10T19:13:59.557Z,6.70
2023-01-10T19:16:31.881Z,8.50
2023-01-10T19:19:09.060Z,6.43
2023-01-10T19:21:41.144Z,6.13
2023-01-10T19:24:28.799Z,4.38
2023-01-10T19:26:56.867Z,5.85
2023-01-10T19:29:24.776Z,5.25
2023-01-10T19:31:53.125Z,4.07
2023-01-10T19:34:20.972Z,4.63
2023-01-10T19:36:48.601Z,3.90
2023-01-10T19:39:16.332Z,6.43
2023-01-10T19:41:44.079Z,4.40
2023-01-10T19:44:16.866Z,5.28
2023-01-10T19:46:47.342Z,5.25
2023-01-10T19:49:19.540Z,2.90
2023-01-10T19:51:51.258Z,6.75
2023-01-10T19:54:19.824Z,5.95
2023-01-10T19:56:47.525Z,6.80
2023-01-10T19:59:17.496Z,6.15
2023-01-10T20:01:45.489Z,5.38
2023-01-10T20:04:14.763Z,6.15
2023-01-10T20:06:42.865Z,7.53
2023-01-10T20:09:13.470Z,10.32
2023-01-10T20:11:43.029Z,6.60
2023-01-10T20:14:17.884Z,7.95
2023-01-10T20:16:47.492Z,10.60
2023-01-10T20:19:15.978Z,6.05
2023-01-10T20:21:44.540Z,3.58
2023-01-10T20:24:16.753Z,3.75
2023-01-10T20:26:46.813Z,5.38
2023-01-10T20:29:14.598Z,2.85
2023-01-10T20:31:52.615Z,4.30
2023-01-10T20:34:21.755Z,4.10
2023-01-10T20:36:52.387Z,4.43
2023-01-10T20:39:22.508Z,2.65
2023-01-10T20:41:51.681Z,4.35
2023-01-10T20:44:19.313Z,2.22
2023-01-10T20:46:47.146Z,3.50
2023-01-10T20:49:14.802Z,3.63
2023-01-10T20:51:42.604Z,3.03
2023-01-10T20:54:10.992Z,6.32
2023-01-10T20:56:39.120Z,4.18
2023-01-10T20:59:07.849Z,3.42
2023-01-10T21:01:36.198Z,5.28
2023-01-10T21:04:06.725Z,3.85
2023-01-10T21:06:36.315Z,2.30
2023-01-10T21:09:05.265Z,3.85
2023-01-10T21:11:41.059Z,7.85
2023-01-10T21:14:15.387Z,5.55
2023-01-10T21:16:43.175Z,7.57
2023-01-10T21:19:13.597Z,3.35
2023-01-10T21:21:42.178Z,2.67
2023-01-10T21:24:10.107Z,2.65
2023-01-10T21:26:37.828Z,3.58
2023-01-10T21:29:05.527Z,2.05
2023-01-10T21:31:33.301Z,1.83
2023-01-10T21:34:01.164Z,1.52
2023-01-10T21:36:28.990Z,2.63
2023-01-10T21:38:56.875Z,2.65
2023-01-10T21:41:43.223Z,1.75
2023-01-10T21:44:11.381Z,1.63
2023-01-10T21:46:40.977Z,3.83
2023-01-10T21:49:10.057Z,2.58
2023-01-10T21:51:37.779Z,3.00
2023-01-10T21:54:05.587Z,2.92
2023-01-10T21:56:33.296Z,3.00
2023-01-10T21:59:01.212Z,3.10
2023-01-10T22:01:29.135Z,3.25
2023-01-10T22:03:57.036Z,2.90
2023-01-10T22:06:24.897Z,3.17
2023-01-10T22:08:52.991Z,2.03
2023-01-10T22:11:20.869Z,3.05
2023-01-10T22:13:50.827Z,4.63
2023-01-10T22:16:18.808Z,2.92
2023-01-10T22:18:46.471Z,4.72
2023-01-10T22:21:15.406Z,4.00
2023-01-10T22:23:52.100Z,3.95
2023-01-10T22:26:19.836Z,2.60
2023-01-10T22:28:47.677Z,4.05
2023-01-10T22:31:15.653Z,1.60
2023-01-10T22:33:43.425Z,4.60
2023-01-10T22:36:17.063Z,2.92
2023-01-10T22:38:46.927Z,3.22
2023-01-10T22:41:21.598Z,5.68
2023-01-10T22:43:51.834Z,2.67
2023-01-10T22:46:20.186Z,3.08
2023-01-10T22:48:48.345Z,2.55
2023-01-10T22:51:18.457Z,3.15
2023-01-10T22:53:51.644Z,2.42
2023-01-10T22:56:19.778Z,2.78
2023-01-10T22:58:50.511Z,1.58
2023-01-10T23:01:21.717Z,1.40
2023-01-10T23:03:50.205Z,1.85
2023-01-10T23:06:18.708Z,3.42
2023-01-10T23:08:47.714Z,2.30
2023-01-10T23:11:18.363Z,3.90
2023-01-10T23:13:47.160Z,3.07
2023-01-10T23:16:28.485Z,1.85
2023-01-10T23:21:26.682Z,2.70
2023-01-10T23:23:55.148Z,2.25
2023-01-10T23:26:23.227Z,2.75
2023-01-10T23:28:52.381Z,3.95
2023-01-10T23:31:23.918Z,3.50
2023-01-10T23:36:23.713Z,2.38
2023-01-10T23:38:51.662Z,1.83
2023-01-10T23:41:22.346Z,3.50
2023-01-10T23:43:51.405Z,1.50
2023-01-10T23:46:19.524Z,1.85
2023-01-10T23:48:48.308Z,1.92
2023-01-10T23:51:16.147Z,1.70
2023-01-10T23:53:43.800Z,3.28
2023-01-10T23:56:14.738Z,1.75
2023-01-10T23:58:42.423Z,4.95
